Etusivu
METAR-TAF:

METAR-TAF

Lentoasemat :

Locarno, Sveitsi

Leveyspiiri: 46-09-55N, Pituuspiiri: 8-52-40E, korkeus merenpinnasta: 198 m

Tämänhetkinen sää

Tämä raportti tehtiin 33 minuuttia sitten, kello 03.20 UTC
tyyntä
Lämpötila 1°C
Kosteus 69%
Ilmanpaine 1021 hPa
Näkyvyys 10 km tai enemmän

METAR: LSZL 190320Z AUTO 00000KT 9999NDV NCD 01/M04 Q1021 RMK

Aika: 04:53 (03:53 UTC)

Sääennuste

Tämä raportti tehtiin 1 tunti ja 28 minuuttia sitten, kello 02.25 UTC
Ennuste voimassa 19. päivästä klo 03 UTC - 19. päivään klo 12 UTC
Tuuli 2 kn eri suunnista
Näkyvyys 10 km tai enemmän
ei pilviä alle 1500 m:ssä eikä cumulonimbus-pilviä

TAF: LSZL 190225Z 1903/1912 VRB02KT CAVOK

Säähavainnot ja -ennusteet yli 4000 lentoasemalta (METAR- ja TAF-raportit).

Käytössä olevat sääasemat on merkitty karttaan keltaisilla ja punaisilla pisteillä.

Aseta hiiri pisteen päälle nähdäksesi sääaseman nimen.

Klikkaa sitten nähdäksesi säähavainnot ja -ennusteet.

Kartan vaihtaminen: klikkaa mustalla rastilla varustettuja vihreitä pisteitä, niin voit zoomata sisään; viivalla varustettua vihreää pistettä, niin voit zoomata ulos tai vihreitä nuolia, niin pääset viereisille kartoille.


METAR-TAF: